FDX19 RJBB-ZSPD
Flight info
| Callsign | FDX19 |
|---|---|
| Flight time | 1h 58m |
| Altitude | 34000 |
| Route | LINDA SHION HABAR Y60 ISAKY Y592 ONIKU A593 LAMEN/K0907F340 A593 AKARA/K0907S1040 A593 DUMET DUM91A |
| Aircraft | MD11/H-SDE1E2E3FGHIJ2J3J4J5M1RWXY/LB1D1 |
Departure
| Time | 2026-05-07 21:55 |
|---|---|
| Airport | Kansai International Airport (RJBB) |
Arrival
| Time | 2026-05-07 23:53 |
|---|---|
| Airport | Shanghai Pudong International Airport (ZSPD) |
| Time | Latitude | Longitude | Altitude | Speed | Heading |
|---|---|---|---|---|---|
| 2026-05-07 21:16 | 34.43574 | 135.22361 | 35 ft | 0 kts | 141° |
| 2026-05-07 21:42 | 34.43582 | 135.22353 | 36 ft | 3 kts | 141° |
| 2026-05-07 21:42 | 34.43597 | 135.22337 | 35 ft | 3 kts | 141° |
| 2026-05-07 21:43 | 34.43610 | 135.22325 | 32 ft | 3 kts | 139° |
| 2026-05-07 21:43 | 34.43623 | 135.22310 | 33 ft | 3 kts | 114° |
| 2026-05-07 21:43 | 34.43628 | 135.22294 | 35 ft | 3 kts | 76° |
| 2026-05-07 21:43 | 34.43621 | 135.22276 | 32 ft | 3 kts | 51° |
| 2026-05-07 21:44 | 34.43610 | 135.22259 | 34 ft | 1 kts | 50° |
| 2026-05-07 21:44 | 34.43608 | 135.22257 | 34 ft | 1 kts | 51° |
| 2026-05-07 21:48 | 34.43614 | 135.22266 | 33 ft | 4 kts | 51° |
| 2026-05-07 21:48 | 34.43650 | 135.22321 | 34 ft | 12 kts | 53° |
| 2026-05-07 21:49 | 34.43704 | 135.22403 | 36 ft | 11 kts | 48° |
| 2026-05-07 21:49 | 34.43762 | 135.22425 | 34 ft | 7 kts | 347° |
| 2026-05-07 21:49 | 34.43791 | 135.22392 | 36 ft | 6 kts | 298° |
| 2026-05-07 21:49 | 34.43782 | 135.22346 | 34 ft | 7 kts | 237° |
| 2026-05-07 21:50 | 34.43745 | 135.22287 | 36 ft | 11 kts | 231° |
| 2026-05-07 21:50 | 34.43690 | 135.22201 | 36 ft | 14 kts | 231° |
| 2026-05-07 21:50 | 34.43622 | 135.22101 | 36 ft | 17 kts | 230° |
| 2026-05-07 21:50 | 34.43538 | 135.21978 | 35 ft | 20 kts | 231° |
| 2026-05-07 21:51 | 34.43444 | 135.21839 | 36 ft | 23 kts | 230° |
| 2026-05-07 21:51 | 34.43341 | 135.21682 | 36 ft | 25 kts | 231° |
| 2026-05-07 21:51 | 34.43230 | 135.21513 | 35 ft | 25 kts | 231° |
| 2026-05-07 21:51 | 34.43125 | 135.21358 | 36 ft | 22 kts | 230° |
| 2026-05-07 21:52 | 34.43031 | 135.21223 | 36 ft | 19 kts | 231° |
| 2026-05-07 21:52 | 34.42952 | 135.21105 | 36 ft | 17 kts | 231° |
| 2026-05-07 21:52 | 34.42884 | 135.21004 | 36 ft | 14 kts | 231° |
| 2026-05-07 21:52 | 34.42826 | 135.20919 | 36 ft | 12 kts | 231° |
| 2026-05-07 21:53 | 34.42778 | 135.20848 | 36 ft | 10 kts | 231° |
| 2026-05-07 21:53 | 34.42749 | 135.20787 | 36 ft | 7 kts | 254° |
| 2026-05-07 21:53 | 34.42755 | 135.20748 | 36 ft | 3 kts | 298° |
| 2026-05-07 21:53 | 34.42793 | 135.20708 | 33 ft | 12 kts | 322° |
| 2026-05-07 21:54 | 34.42870 | 135.20654 | 32 ft | 10 kts | 3° |
| 2026-05-07 21:54 | 34.42906 | 135.20692 | 31 ft | 1 kts | 51° |
| 2026-05-07 21:54 | 34.42908 | 135.20695 | 31 ft | 4 kts | 51° |
| 2026-05-07 21:54 | 34.43062 | 135.20927 | 35 ft | 76 kts | 49° |
| 2026-05-07 21:55 | 34.43550 | 135.21655 | 40 ft | 146 kts | 51° |
| 2026-05-07 21:55 | 34.44321 | 135.22794 | 174 ft | 192 kts | 49° |
| 2026-05-07 21:55 | 34.45183 | 135.24026 | 973 ft | 192 kts | 48° |
| 2026-05-07 21:55 | 34.46183 | 135.25040 | 1940 ft | 187 kts | 21° |
| 2026-05-07 21:56 | 34.47458 | 135.25211 | 2605 ft | 187 kts | 339° |
| 2026-05-07 21:56 | 34.48483 | 135.24362 | 3402 ft | 181 kts | 301° |
| 2026-05-07 21:56 | 34.48934 | 135.22889 | 3925 ft | 195 kts | 278° |
| 2026-05-07 21:56 | 34.49127 | 135.21180 | 4324 ft | 215 kts | 274° |
| 2026-05-07 21:57 | 34.49278 | 135.19261 | 4551 ft | 242 kts | 274° |
| 2026-05-07 21:57 | 34.49434 | 135.17128 | 4979 ft | 259 kts | 274° |
| 2026-05-07 21:57 | 34.49594 | 135.14956 | 6016 ft | 259 kts | 273° |
| 2026-05-07 21:57 | 34.49753 | 135.12776 | 6984 ft | 261 kts | 273° |
| 2026-05-07 21:58 | 34.49912 | 135.10597 | 7863 ft | 264 kts | 272° |
| 2026-05-07 21:58 | 34.50042 | 135.08360 | 8718 ft | 267 kts | 270° |
| 2026-05-07 21:58 | 34.50096 | 135.06097 | 9578 ft | 270 kts | 268° |
| 2026-05-07 21:58 | 34.50128 | 135.03797 | 10252 ft | 281 kts | 268° |
| 2026-05-07 21:59 | 34.50154 | 135.01308 | 10376 ft | 309 kts | 268° |
| 2026-05-07 21:59 | 34.50190 | 134.98580 | 10525 ft | 336 kts | 269° |
| 2026-05-07 21:59 | 34.50242 | 134.95712 | 11244 ft | 342 kts | 269° |
| 2026-05-07 21:59 | 34.50301 | 134.92820 | 12099 ft | 345 kts | 268° |
| 2026-05-07 22:00 | 34.50362 | 134.89898 | 12946 ft | 348 kts | 268° |
| 2026-05-07 22:00 | 34.50383 | 134.86954 | 13691 ft | 350 kts | 264° |
| 2026-05-07 22:00 | 34.50165 | 134.84024 | 14458 ft | 349 kts | 260° |
| 2026-05-07 22:00 | 34.49824 | 134.81109 | 15200 ft | 349 kts | 258° |
| 2026-05-07 22:01 | 34.49444 | 134.78199 | 15930 ft | 350 kts | 257° |
| 2026-05-07 22:01 | 34.49053 | 134.75280 | 16640 ft | 351 kts | 257° |
| 2026-05-07 22:01 | 34.48664 | 134.72362 | 17327 ft | 352 kts | 257° |
| 2026-05-07 22:01 | 34.48276 | 134.69423 | 17986 ft | 354 kts | 256° |
| 2026-05-07 22:02 | 34.47887 | 134.66463 | 18556 ft | 356 kts | 256° |
| 2026-05-07 22:02 | 34.47511 | 134.63480 | 19019 ft | 361 kts | 259° |
| 2026-05-07 22:02 | 34.47473 | 134.60411 | 19480 ft | 369 kts | 268° |
| 2026-05-07 22:02 | 34.47700 | 134.57286 | 19943 ft | 374 kts | 271° |
| 2026-05-07 22:03 | 34.48003 | 134.54139 | 20396 ft | 378 kts | 272° |
| 2026-05-07 22:03 | 34.48319 | 134.50970 | 20872 ft | 379 kts | 270° |
| 2026-05-07 22:03 | 34.48229 | 134.47812 | 21326 ft | 374 kts | 256° |
| 2026-05-07 22:03 | 34.47507 | 134.44822 | 21748 ft | 375 kts | 248° |
| 2026-05-07 22:04 | 34.46562 | 134.41858 | 22217 ft | 379 kts | 248° |
| 2026-05-07 22:04 | 34.45628 | 134.38857 | 22721 ft | 382 kts | 249° |
| 2026-05-07 22:04 | 34.44762 | 134.35797 | 23203 ft | 386 kts | 251° |
| 2026-05-07 22:04 | 34.43956 | 134.32681 | 23649 ft | 390 kts | 252° |
| 2026-05-07 22:05 | 34.43192 | 134.29518 | 24081 ft | 392 kts | 253° |
| 2026-05-07 22:05 | 34.42517 | 134.26302 | 24527 ft | 396 kts | 256° |
| 2026-05-07 22:05 | 34.41957 | 134.23027 | 25002 ft | 398 kts | 257° |
| 2026-05-07 22:05 | 34.41442 | 134.19711 | 25436 ft | 402 kts | 258° |
| 2026-05-07 22:06 | 34.40941 | 134.16367 | 25864 ft | 405 kts | 258° |
| 2026-05-07 22:06 | 34.40437 | 134.12996 | 26313 ft | 408 kts | 258° |
| 2026-05-07 22:06 | 34.39927 | 134.09602 | 26746 ft | 411 kts | 258° |
| 2026-05-07 22:06 | 34.39409 | 134.06184 | 27185 ft | 414 kts | 258° |
| 2026-05-07 22:07 | 34.38881 | 134.02734 | 27606 ft | 417 kts | 258° |
| 2026-05-07 22:07 | 34.38346 | 133.99267 | 28032 ft | 420 kts | 258° |
| 2026-05-07 22:07 | 34.37811 | 133.95821 | 28440 ft | 424 kts | 258° |
| 2026-05-07 22:07 | 34.37265 | 133.92304 | 28785 ft | 427 kts | 258° |
| 2026-05-07 22:08 | 34.36713 | 133.88761 | 29208 ft | 430 kts | 258° |
| 2026-05-07 22:08 | 34.36158 | 133.85196 | 29619 ft | 432 kts | 258° |
| 2026-05-07 22:08 | 34.35597 | 133.81608 | 30007 ft | 435 kts | 257° |
| 2026-05-07 22:08 | 34.35033 | 133.78009 | 30321 ft | 437 kts | 257° |
| 2026-05-07 22:09 | 34.34464 | 133.74389 | 30621 ft | 439 kts | 257° |
| 2026-05-07 22:09 | 34.33893 | 133.70754 | 30996 ft | 438 kts | 257° |
| 2026-05-07 22:09 | 34.33322 | 133.67131 | 31401 ft | 437 kts | 257° |
| 2026-05-07 22:09 | 34.32754 | 133.63522 | 31800 ft | 436 kts | 257° |
| 2026-05-07 22:10 | 34.32127 | 133.59930 | 32152 ft | 435 kts | 254° |
| 2026-05-07 22:10 | 34.31300 | 133.56474 | 32531 ft | 433 kts | 251° |
| 2026-05-07 22:10 | 34.30345 | 133.53023 | 32918 ft | 431 kts | 249° |
| 2026-05-07 22:10 | 34.29354 | 133.49619 | 33301 ft | 429 kts | 249° |
| 2026-05-07 22:11 | 34.28357 | 133.46220 | 33698 ft | 427 kts | 249° |
| 2026-05-07 22:11 | 34.27370 | 133.42831 | 33942 ft | 428 kts | 249° |
| 2026-05-07 22:11 | 34.25411 | 133.36012 | 33993 ft | 429 kts | 250° |
| 2026-05-07 22:12 | 34.23468 | 133.29187 | 34017 ft | 429 kts | 250° |
| 2026-05-07 22:12 | 34.21521 | 133.22368 | 34011 ft | 429 kts | 250° |
| 2026-05-07 22:13 | 34.19566 | 133.15549 | 34004 ft | 429 kts | 250° |
| 2026-05-07 22:13 | 34.17602 | 133.08746 | 34003 ft | 429 kts | 250° |
| 2026-05-07 22:14 | 34.15635 | 133.01924 | 34020 ft | 430 kts | 250° |
| 2026-05-07 22:14 | 34.13683 | 132.95142 | 34018 ft | 430 kts | 250° |
| 2026-05-07 22:15 | 34.11711 | 132.88313 | 34017 ft | 431 kts | 250° |
| 2026-05-07 22:15 | 34.09729 | 132.81472 | 34012 ft | 432 kts | 250° |
| 2026-05-07 22:16 | 34.07735 | 132.74605 | 34021 ft | 433 kts | 250° |
| 2026-05-07 22:16 | 34.05739 | 132.67749 | 34010 ft | 434 kts | 250° |
| 2026-05-07 22:17 | 34.03732 | 132.60879 | 34019 ft | 434 kts | 250° |
| 2026-05-07 22:17 | 34.01718 | 132.54001 | 34015 ft | 435 kts | 250° |
| 2026-05-07 22:18 | 33.98695 | 132.43696 | 34032 ft | 434 kts | 250° |
| 2026-05-07 22:19 | 33.96691 | 132.36885 | 34030 ft | 434 kts | 251° |
| 2026-05-07 22:19 | 33.94673 | 132.30037 | 34029 ft | 433 kts | 251° |
| 2026-05-07 22:20 | 33.92651 | 132.23197 | 34030 ft | 434 kts | 251° |
| 2026-05-07 22:20 | 33.90630 | 132.16349 | 34034 ft | 433 kts | 252° |
| 2026-05-07 22:21 | 33.88972 | 132.09378 | 34035 ft | 433 kts | 255° |
| 2026-05-07 22:21 | 33.87471 | 132.02372 | 34036 ft | 432 kts | 255° |
| 2026-05-07 22:22 | 33.85967 | 131.95374 | 34034 ft | 432 kts | 256° |
| 2026-05-07 22:22 | 33.84459 | 131.88428 | 34036 ft | 432 kts | 255° |
| 2026-05-07 22:23 | 33.82925 | 131.81440 | 34038 ft | 432 kts | 255° |
| 2026-05-07 22:23 | 33.81388 | 131.74464 | 34040 ft | 431 kts | 255° |
| 2026-05-07 22:24 | 33.79846 | 131.67500 | 34034 ft | 431 kts | 255° |
| 2026-05-07 22:24 | 33.78297 | 131.60526 | 34036 ft | 431 kts | 255° |
| 2026-05-07 22:25 | 33.76759 | 131.53602 | 34034 ft | 431 kts | 255° |
| 2026-05-07 22:25 | 33.75210 | 131.46644 | 34034 ft | 431 kts | 255° |
| 2026-05-07 22:26 | 33.73654 | 131.39692 | 34029 ft | 431 kts | 255° |
| 2026-05-07 22:26 | 33.72092 | 131.32734 | 34035 ft | 431 kts | 255° |
| 2026-05-07 22:27 | 33.70526 | 131.25790 | 34036 ft | 431 kts | 255° |
| 2026-05-07 22:27 | 33.68948 | 131.18838 | 34036 ft | 431 kts | 255° |
| 2026-05-07 22:28 | 33.67351 | 131.11896 | 34032 ft | 431 kts | 255° |
| 2026-05-07 22:28 | 33.66032 | 131.06133 | 34038 ft | 431 kts | 255° |
| 2026-05-07 22:29 | 33.64446 | 130.99186 | 34037 ft | 431 kts | 255° |
| 2026-05-07 22:29 | 33.62860 | 130.92247 | 34042 ft | 431 kts | 255° |
| 2026-05-07 22:30 | 33.61307 | 130.85480 | 34064 ft | 409 kts | 256° |
| 2026-05-07 22:30 | 33.59798 | 130.78909 | 34060 ft | 408 kts | 256° |
| 2026-05-07 22:31 | 33.58293 | 130.72361 | 34058 ft | 407 kts | 256° |
| 2026-05-07 22:31 | 33.56782 | 130.65815 | 34060 ft | 406 kts | 256° |
| 2026-05-07 22:32 | 33.55271 | 130.59290 | 34061 ft | 406 kts | 256° |
| 2026-05-07 22:32 | 33.53759 | 130.52771 | 34057 ft | 405 kts | 256° |
| 2026-05-07 22:33 | 33.52173 | 130.46295 | 34061 ft | 405 kts | 252° |
| 2026-05-07 22:33 | 33.49944 | 130.40085 | 34056 ft | 407 kts | 248° |
| 2026-05-07 22:34 | 33.47521 | 130.33959 | 34061 ft | 406 kts | 248° |
| 2026-05-07 22:34 | 33.45131 | 130.27875 | 34061 ft | 406 kts | 248° |
| 2026-05-07 22:35 | 33.42749 | 130.21758 | 34069 ft | 405 kts | 248° |
| 2026-05-07 22:35 | 33.40373 | 130.15639 | 34079 ft | 404 kts | 249° |
| 2026-05-07 22:36 | 33.38002 | 130.09540 | 34082 ft | 404 kts | 249° |
| 2026-05-07 22:36 | 33.35631 | 130.03452 | 34082 ft | 403 kts | 249° |
| 2026-05-07 22:37 | 33.33260 | 129.97382 | 34090 ft | 402 kts | 249° |
| 2026-05-07 22:37 | 33.30889 | 129.91319 | 34092 ft | 402 kts | 249° |
| 2026-05-07 22:38 | 33.28652 | 129.85610 | 34096 ft | 401 kts | 248° |
| 2026-05-07 22:38 | 33.26269 | 129.79540 | 34097 ft | 401 kts | 248° |
| 2026-05-07 22:39 | 33.23918 | 129.73555 | 34107 ft | 400 kts | 248° |
| 2026-05-07 22:39 | 33.21550 | 129.67540 | 34108 ft | 399 kts | 248° |
| 2026-05-07 22:40 | 33.19317 | 129.61461 | 34103 ft | 398 kts | 251° |
| 2026-05-07 22:40 | 33.17227 | 129.55344 | 34109 ft | 398 kts | 251° |
| 2026-05-07 22:41 | 33.15149 | 129.49230 | 34110 ft | 397 kts | 251° |
| 2026-05-07 22:41 | 33.13065 | 129.43121 | 34114 ft | 397 kts | 251° |
| 2026-05-07 22:42 | 33.10981 | 129.37032 | 34119 ft | 396 kts | 251° |
| 2026-05-07 22:42 | 33.08892 | 129.30951 | 34117 ft | 396 kts | 251° |
| 2026-05-07 22:43 | 33.06814 | 129.24916 | 34124 ft | 396 kts | 250° |
| 2026-05-07 22:43 | 33.04717 | 129.18831 | 34125 ft | 396 kts | 250° |
| 2026-05-07 22:44 | 33.02624 | 129.12765 | 34127 ft | 396 kts | 250° |
| 2026-05-07 22:44 | 33.00529 | 129.06705 | 34146 ft | 395 kts | 250° |
| 2026-05-07 22:45 | 32.98428 | 129.00640 | 34134 ft | 396 kts | 250° |
| 2026-05-07 22:45 | 32.96325 | 128.94583 | 34134 ft | 396 kts | 250° |
| 2026-05-07 22:46 | 32.94219 | 128.88531 | 34137 ft | 396 kts | 250° |
| 2026-05-07 22:46 | 32.92107 | 128.82475 | 34142 ft | 396 kts | 250° |
| 2026-05-07 22:47 | 32.90007 | 128.76463 | 34140 ft | 395 kts | 250° |
| 2026-05-07 22:47 | 32.87879 | 128.70430 | 34144 ft | 395 kts | 250° |
| 2026-05-07 22:48 | 32.85745 | 128.64399 | 34146 ft | 395 kts | 250° |
| 2026-05-07 22:48 | 32.83620 | 128.58367 | 34144 ft | 396 kts | 250° |
| 2026-05-07 22:49 | 32.81494 | 128.52328 | 34150 ft | 396 kts | 250° |
| 2026-05-07 22:49 | 32.79369 | 128.46295 | 34148 ft | 396 kts | 250° |
| 2026-05-07 22:50 | 32.77240 | 128.40265 | 34155 ft | 395 kts | 250° |
| 2026-05-07 22:50 | 32.75107 | 128.34233 | 34159 ft | 396 kts | 250° |
| 2026-05-07 22:51 | 32.72972 | 128.28209 | 34159 ft | 396 kts | 250° |
| 2026-05-07 22:51 | 32.70843 | 128.22220 | 34158 ft | 396 kts | 250° |
| 2026-05-07 22:52 | 32.68705 | 128.16198 | 34162 ft | 396 kts | 249° |
| 2026-05-07 22:52 | 32.66571 | 128.10182 | 34160 ft | 396 kts | 249° |
| 2026-05-07 22:53 | 32.64433 | 128.04165 | 34160 ft | 396 kts | 249° |
| 2026-05-07 22:53 | 32.62289 | 127.98138 | 34158 ft | 396 kts | 249° |
| 2026-05-07 22:54 | 32.60145 | 127.92117 | 34170 ft | 396 kts | 249° |
| 2026-05-07 22:54 | 32.58013 | 127.86138 | 34173 ft | 396 kts | 250° |
| 2026-05-07 22:55 | 32.55870 | 127.80112 | 34173 ft | 396 kts | 249° |
| 2026-05-07 22:55 | 32.53711 | 127.74092 | 34174 ft | 396 kts | 249° |
| 2026-05-07 22:56 | 32.51548 | 127.68080 | 34175 ft | 397 kts | 249° |
| 2026-05-07 22:56 | 32.49383 | 127.62067 | 34178 ft | 397 kts | 249° |
| 2026-05-07 22:57 | 32.47214 | 127.56050 | 34175 ft | 397 kts | 249° |
| 2026-05-07 22:57 | 32.45043 | 127.50035 | 34181 ft | 397 kts | 249° |
| 2026-05-07 22:58 | 32.42885 | 127.44071 | 34179 ft | 397 kts | 249° |
| 2026-05-07 22:58 | 32.40707 | 127.38062 | 34176 ft | 397 kts | 249° |
| 2026-05-07 22:59 | 32.38511 | 127.32061 | 34174 ft | 397 kts | 249° |
| 2026-05-07 22:59 | 32.36314 | 127.26069 | 34178 ft | 397 kts | 249° |
| 2026-05-07 23:00 | 32.34121 | 127.20068 | 34182 ft | 397 kts | 249° |
| 2026-05-07 23:00 | 32.31949 | 127.14117 | 34183 ft | 397 kts | 249° |
| 2026-05-07 23:01 | 32.29764 | 127.08139 | 34182 ft | 396 kts | 249° |
| 2026-05-07 23:01 | 32.27645 | 127.02129 | 34189 ft | 395 kts | 253° |
| 2026-05-07 23:02 | 32.26130 | 126.95901 | 34184 ft | 394 kts | 256° |
| 2026-05-07 23:02 | 32.24807 | 126.89669 | 34186 ft | 394 kts | 257° |
| 2026-05-07 23:03 | 32.23460 | 126.83388 | 34186 ft | 395 kts | 256° |
| 2026-05-07 23:03 | 32.22089 | 126.77110 | 34186 ft | 394 kts | 256° |
| 2026-05-07 23:04 | 32.20709 | 126.70838 | 34189 ft | 395 kts | 256° |
| 2026-05-07 23:04 | 32.19336 | 126.64599 | 34189 ft | 395 kts | 256° |
| 2026-05-07 23:05 | 32.17970 | 126.58313 | 34188 ft | 395 kts | 257° |
| 2026-05-07 23:05 | 32.16613 | 126.52017 | 34196 ft | 395 kts | 257° |
| 2026-05-07 23:06 | 32.15259 | 126.45735 | 34196 ft | 395 kts | 257° |
| 2026-05-07 23:06 | 32.13896 | 126.39446 | 34202 ft | 396 kts | 257° |
| 2026-05-07 23:07 | 32.12527 | 126.33152 | 34199 ft | 396 kts | 257° |
| 2026-05-07 23:07 | 32.11156 | 126.26864 | 34203 ft | 395 kts | 256° |
| 2026-05-07 23:08 | 32.09790 | 126.20621 | 34211 ft | 395 kts | 256° |
| 2026-05-07 23:08 | 32.08416 | 126.14335 | 34214 ft | 396 kts | 257° |
| 2026-05-07 23:09 | 32.07036 | 126.08039 | 34218 ft | 397 kts | 257° |
| 2026-05-07 23:09 | 32.05655 | 126.01727 | 34219 ft | 397 kts | 257° |
| 2026-05-07 23:10 | 32.04290 | 125.95416 | 34219 ft | 398 kts | 257° |
| 2026-05-07 23:10 | 32.02928 | 125.89088 | 34217 ft | 398 kts | 257° |
| 2026-05-07 23:11 | 32.01566 | 125.82771 | 34225 ft | 398 kts | 257° |
| 2026-05-07 23:11 | 32.00188 | 125.76441 | 34225 ft | 398 kts | 257° |
| 2026-05-07 23:12 | 31.98797 | 125.70173 | 34226 ft | 398 kts | 256° |
| 2026-05-07 23:12 | 31.97393 | 125.63865 | 34224 ft | 399 kts | 257° |
| 2026-05-07 23:13 | 31.95985 | 125.57534 | 34235 ft | 400 kts | 257° |
| 2026-05-07 23:13 | 31.94576 | 125.51202 | 34235 ft | 400 kts | 257° |
| 2026-05-07 23:14 | 31.93161 | 125.44866 | 34236 ft | 400 kts | 257° |
| 2026-05-07 23:14 | 31.91739 | 125.38522 | 34236 ft | 400 kts | 257° |
| 2026-05-07 23:15 | 31.90314 | 125.32182 | 34238 ft | 401 kts | 257° |
| 2026-05-07 23:15 | 31.88886 | 125.25838 | 34240 ft | 401 kts | 257° |
| 2026-05-07 23:16 | 31.87695 | 125.20559 | 34242 ft | 402 kts | 257° |
| 2026-05-07 23:16 | 31.86258 | 125.14199 | 34243 ft | 402 kts | 257° |
| 2026-05-07 23:17 | 31.84815 | 125.07830 | 34249 ft | 403 kts | 257° |
| 2026-05-07 23:17 | 31.83370 | 125.01469 | 34246 ft | 403 kts | 257° |
| 2026-05-07 23:18 | 31.81950 | 124.95080 | 34250 ft | 404 kts | 257° |
| 2026-05-07 23:18 | 31.80566 | 124.88717 | 34250 ft | 404 kts | 257° |
| 2026-05-07 23:19 | 31.79179 | 124.82312 | 34253 ft | 405 kts | 257° |
| 2026-05-07 23:19 | 31.77787 | 124.75892 | 34252 ft | 405 kts | 257° |
| 2026-05-07 23:20 | 31.76389 | 124.69465 | 34252 ft | 406 kts | 258° |
| 2026-05-07 23:20 | 31.74983 | 124.63020 | 34256 ft | 407 kts | 257° |
| 2026-05-07 23:21 | 31.73572 | 124.56568 | 34257 ft | 408 kts | 258° |
| 2026-05-07 23:21 | 31.72167 | 124.50162 | 34263 ft | 408 kts | 257° |
| 2026-05-07 23:22 | 31.70747 | 124.43706 | 34265 ft | 409 kts | 258° |
| 2026-05-07 23:22 | 31.69323 | 124.37234 | 34263 ft | 409 kts | 258° |
| 2026-05-07 23:23 | 31.67975 | 124.31054 | 34270 ft | 410 kts | 258° |
| 2026-05-07 23:23 | 31.66540 | 124.24564 | 34269 ft | 410 kts | 258° |
| 2026-05-07 23:24 | 31.65097 | 124.18083 | 34271 ft | 410 kts | 258° |
| 2026-05-07 23:24 | 31.63652 | 124.11605 | 34268 ft | 410 kts | 258° |
| 2026-05-07 23:25 | 31.62208 | 124.05166 | 34272 ft | 410 kts | 258° |
| 2026-05-07 23:25 | 31.60742 | 123.98691 | 34276 ft | 411 kts | 258° |
| 2026-05-07 23:26 | 31.59308 | 123.92196 | 34282 ft | 411 kts | 258° |
| 2026-05-07 23:26 | 31.57888 | 123.85703 | 34280 ft | 411 kts | 258° |
| 2026-05-07 23:27 | 31.55754 | 123.75962 | 34283 ft | 411 kts | 258° |
| 2026-05-07 23:27 | 31.54326 | 123.69460 | 34285 ft | 411 kts | 258° |
| 2026-05-07 23:28 | 31.52908 | 123.63003 | 34285 ft | 412 kts | 258° |
| 2026-05-07 23:28 | 31.51475 | 123.56504 | 34209 ft | 411 kts | 258° |
| 2026-05-07 23:29 | 31.50050 | 123.50013 | 34173 ft | 411 kts | 259° |
| 2026-05-07 23:29 | 31.48769 | 123.43479 | 34169 ft | 412 kts | 260° |
| 2026-05-07 23:30 | 31.47537 | 123.36910 | 34174 ft | 412 kts | 260° |
| 2026-05-07 23:30 | 31.46313 | 123.30395 | 34175 ft | 412 kts | 260° |
| 2026-05-07 23:31 | 31.45080 | 123.23877 | 33912 ft | 406 kts | 260° |
| 2026-05-07 23:31 | 31.44467 | 123.20642 | 33506 ft | 407 kts | 260° |
| 2026-05-07 23:31 | 31.43852 | 123.17401 | 32930 ft | 408 kts | 260° |
| 2026-05-07 23:32 | 31.43235 | 123.14154 | 32372 ft | 409 kts | 259° |
| 2026-05-07 23:32 | 31.42613 | 123.10892 | 31796 ft | 412 kts | 259° |
| 2026-05-07 23:32 | 31.41987 | 123.07612 | 31219 ft | 414 kts | 259° |
| 2026-05-07 23:32 | 31.41356 | 123.04314 | 30664 ft | 416 kts | 259° |
| 2026-05-07 23:33 | 31.40719 | 123.00990 | 30053 ft | 419 kts | 259° |
| 2026-05-07 23:33 | 31.40078 | 122.97648 | 29350 ft | 422 kts | 259° |
| 2026-05-07 23:33 | 31.39433 | 122.94288 | 28691 ft | 425 kts | 259° |
| 2026-05-07 23:33 | 31.38781 | 122.90903 | 28024 ft | 428 kts | 259° |
| 2026-05-07 23:34 | 31.38125 | 122.87498 | 27396 ft | 429 kts | 258° |
| 2026-05-07 23:34 | 31.37466 | 122.84098 | 26757 ft | 426 kts | 258° |
| 2026-05-07 23:34 | 31.36675 | 122.80772 | 26150 ft | 423 kts | 252° |
| 2026-05-07 23:34 | 31.35443 | 122.77659 | 25539 ft | 423 kts | 241° |
| 2026-05-07 23:35 | 31.33631 | 122.74951 | 24940 ft | 425 kts | 230° |
| 2026-05-07 23:35 | 31.31484 | 122.72641 | 24336 ft | 424 kts | 225° |
| 2026-05-07 23:35 | 31.29195 | 122.70474 | 23726 ft | 422 kts | 223° |
| 2026-05-07 23:35 | 31.26899 | 122.68361 | 23038 ft | 417 kts | 223° |
| 2026-05-07 23:36 | 31.24644 | 122.66263 | 22415 ft | 412 kts | 223° |
| 2026-05-07 23:36 | 31.22432 | 122.64166 | 21806 ft | 406 kts | 224° |
| 2026-05-07 23:36 | 31.20262 | 122.62075 | 21214 ft | 401 kts | 224° |
| 2026-05-07 23:36 | 31.18129 | 122.59997 | 20640 ft | 396 kts | 224° |
| 2026-05-07 23:37 | 31.16027 | 122.57941 | 20080 ft | 392 kts | 224° |
| 2026-05-07 23:37 | 31.13954 | 122.55908 | 19514 ft | 387 kts | 224° |
| 2026-05-07 23:37 | 31.11904 | 122.53897 | 18963 ft | 383 kts | 223° |
| 2026-05-07 23:37 | 31.09872 | 122.51905 | 18411 ft | 378 kts | 223° |
| 2026-05-07 23:38 | 31.07869 | 122.49945 | 17797 ft | 375 kts | 223° |
| 2026-05-07 23:38 | 31.05900 | 122.48018 | 17364 ft | 374 kts | 224° |
| 2026-05-07 23:38 | 31.03909 | 122.46069 | 17094 ft | 374 kts | 224° |
| 2026-05-07 23:38 | 31.01950 | 122.44158 | 16996 ft | 356 kts | 224° |
| 2026-05-07 23:39 | 31.00149 | 122.42306 | 16882 ft | 334 kts | 230° |
| 2026-05-07 23:39 | 30.98717 | 122.40284 | 16782 ft | 314 kts | 237° |
| 2026-05-07 23:39 | 30.97498 | 122.38251 | 16665 ft | 298 kts | 239° |
| 2026-05-07 23:39 | 30.96375 | 122.36289 | 16560 ft | 284 kts | 240° |
| 2026-05-07 23:40 | 30.95311 | 122.34416 | 16418 ft | 273 kts | 240° |
| 2026-05-07 23:40 | 30.94270 | 122.32584 | 16156 ft | 271 kts | 240° |
| 2026-05-07 23:40 | 30.93227 | 122.30753 | 15700 ft | 271 kts | 240° |
| 2026-05-07 23:40 | 30.92171 | 122.28907 | 15159 ft | 276 kts | 241° |
| 2026-05-07 23:41 | 30.91099 | 122.27035 | 14623 ft | 280 kts | 241° |
| 2026-05-07 23:41 | 30.90009 | 122.25134 | 14083 ft | 285 kts | 242° |
| 2026-05-07 23:41 | 30.88913 | 122.23226 | 13488 ft | 289 kts | 241° |
| 2026-05-07 23:41 | 30.87784 | 122.21263 | 12899 ft | 293 kts | 241° |
| 2026-05-07 23:42 | 30.86644 | 122.19286 | 12328 ft | 295 kts | 241° |
| 2026-05-07 23:42 | 30.85499 | 122.17301 | 11761 ft | 295 kts | 240° |
| 2026-05-07 23:42 | 30.84358 | 122.15328 | 11189 ft | 293 kts | 240° |
| 2026-05-07 23:42 | 30.83206 | 122.13335 | 10564 ft | 294 kts | 240° |
| 2026-05-07 23:43 | 30.82077 | 122.11383 | 9960 ft | 295 kts | 240° |
| 2026-05-07 23:43 | 30.80931 | 122.09404 | 9347 ft | 294 kts | 240° |
| 2026-05-07 23:43 | 30.79955 | 122.07361 | 8857 ft | 284 kts | 251° |
| 2026-05-07 23:43 | 30.79262 | 122.05235 | 8343 ft | 280 kts | 255° |
| 2026-05-07 23:44 | 30.78651 | 122.03092 | 7833 ft | 278 kts | 256° |
| 2026-05-07 23:44 | 30.78063 | 122.00963 | 7362 ft | 275 kts | 256° |
| 2026-05-07 23:44 | 30.77488 | 121.98880 | 7094 ft | 265 kts | 256° |
| 2026-05-07 23:44 | 30.76945 | 121.96896 | 6948 ft | 250 kts | 258° |
| 2026-05-07 23:45 | 30.76752 | 121.94948 | 6541 ft | 239 kts | 282° |
| 2026-05-07 23:45 | 30.77432 | 121.93261 | 6084 ft | 230 kts | 318° |
| 2026-05-07 23:45 | 30.78778 | 121.92332 | 5680 ft | 224 kts | 340° |
| 2026-05-07 23:45 | 30.80226 | 121.91709 | 5283 ft | 223 kts | 341° |
| 2026-05-07 23:46 | 30.81650 | 121.91121 | 5054 ft | 208 kts | 343° |
| 2026-05-07 23:46 | 30.82959 | 121.90614 | 4939 ft | 188 kts | 344° |
| 2026-05-07 23:46 | 30.84175 | 121.90147 | 4649 ft | 181 kts | 345° |
| 2026-05-07 23:46 | 30.85342 | 121.89702 | 4294 ft | 176 kts | 345° |
| 2026-05-07 23:47 | 30.86497 | 121.89263 | 4045 ft | 173 kts | 346° |
| 2026-05-07 23:47 | 30.87663 | 121.88822 | 3914 ft | 176 kts | 346° |
| 2026-05-07 23:47 | 30.88824 | 121.88384 | 3778 ft | 176 kts | 346° |
| 2026-05-07 23:47 | 30.89975 | 121.87950 | 3681 ft | 176 kts | 346° |
| 2026-05-07 23:48 | 30.91143 | 121.87509 | 3585 ft | 176 kts | 346° |
| 2026-05-07 23:48 | 30.92306 | 121.87069 | 3509 ft | 175 kts | 346° |
| 2026-05-07 23:48 | 30.93470 | 121.86630 | 3403 ft | 175 kts | 347° |
| 2026-05-07 23:48 | 30.94626 | 121.86197 | 3301 ft | 174 kts | 347° |
| 2026-05-07 23:49 | 30.95778 | 121.85762 | 3210 ft | 174 kts | 346° |
| 2026-05-07 23:49 | 30.96928 | 121.85330 | 3087 ft | 173 kts | 346° |
| 2026-05-07 23:49 | 30.98075 | 121.84896 | 2987 ft | 174 kts | 347° |
| 2026-05-07 23:49 | 30.99229 | 121.84464 | 2776 ft | 173 kts | 347° |
| 2026-05-07 23:50 | 31.00361 | 121.84037 | 2552 ft | 173 kts | 347° |
| 2026-05-07 23:50 | 31.01499 | 121.83608 | 2337 ft | 168 kts | 345° |
| 2026-05-07 23:50 | 31.02575 | 121.83204 | 2085 ft | 161 kts | 345° |
| 2026-05-07 23:50 | 31.03634 | 121.82799 | 1889 ft | 159 kts | 345° |
| 2026-05-07 23:51 | 31.04686 | 121.82403 | 1683 ft | 159 kts | 345° |
| 2026-05-07 23:51 | 31.05723 | 121.82016 | 1454 ft | 153 kts | 345° |
| 2026-05-07 23:51 | 31.06727 | 121.81638 | 1257 ft | 151 kts | 346° |
| 2026-05-07 23:51 | 31.07729 | 121.81258 | 1077 ft | 151 kts | 346° |
| 2026-05-07 23:52 | 31.08729 | 121.80881 | 835 ft | 151 kts | 344° |
| 2026-05-07 23:52 | 31.09727 | 121.80504 | 658 ft | 152 kts | 346° |
| 2026-05-07 23:52 | 31.10735 | 121.80123 | 417 ft | 153 kts | 345° |
| 2026-05-07 23:52 | 31.11735 | 121.79755 | 233 ft | 153 kts | 343° |
| 2026-05-07 23:53 | 31.12758 | 121.79362 | 54 ft | 155 kts | 343° |
| 2026-05-07 23:53 | 31.13690 | 121.79015 | 29 ft | 123 kts | 341° |
| 2026-05-07 23:53 | 31.14386 | 121.78753 | 30 ft | 87 kts | 342° |
| 2026-05-07 23:53 | 31.14790 | 121.78579 | 29 ft | 34 kts | 331° |
| 2026-05-07 23:54 | 31.14900 | 121.78466 | 28 ft | 11 kts | 314° |
| 2026-05-07 23:54 | 31.14934 | 121.78424 | 27 ft | 6 kts | 308° |
| 2026-05-07 23:54 | 31.14946 | 121.78367 | 30 ft | 8 kts | 258° |
| 2026-05-07 23:54 | 31.14927 | 121.78297 | 30 ft | 9 kts | 252° |
| 2026-05-07 23:55 | 31.14900 | 121.78255 | 30 ft | 5 kts | 208° |
| 2026-05-07 23:55 | 31.14854 | 121.78259 | 30 ft | 10 kts | 167° |
| 2026-05-07 23:55 | 31.14774 | 121.78286 | 30 ft | 13 kts | 163° |
| 2026-05-07 23:55 | 31.14687 | 121.78317 | 30 ft | 12 kts | 162° |
| 2026-05-07 23:56 | 31.14609 | 121.78347 | 30 ft | 11 kts | 162° |
| 2026-05-07 23:56 | 31.14543 | 121.78372 | 30 ft | 9 kts | 163° |
| 2026-05-07 23:56 | 31.14483 | 121.78393 | 30 ft | 11 kts | 162° |
| 2026-05-07 23:56 | 31.14404 | 121.78425 | 30 ft | 12 kts | 160° |
| 2026-05-07 23:57 | 31.14334 | 121.78453 | 30 ft | 10 kts | 161° |
| 2026-05-07 23:57 | 31.14275 | 121.78475 | 29 ft | 0 kts | 163° |
| 2026-05-07 23:57 | 31.14268 | 121.78478 | 31 ft | 2 kts | 164° |
| 2026-05-07 23:57 | 31.14238 | 121.78505 | 30 ft | 6 kts | 118° |
| 2026-05-07 23:58 | 31.14254 | 121.78574 | 30 ft | 12 kts | 54° |
| 2026-05-07 23:58 | 31.14286 | 121.78588 | 30 ft | 3 kts | 345° |
| 2026-05-07 23:58 | 31.14314 | 121.78573 | 30 ft | 7 kts | 335° |
| 2026-05-07 23:58 | 31.14384 | 121.78541 | 30 ft | 15 kts | 342° |
| 2026-05-07 23:59 | 31.14484 | 121.78503 | 30 ft | 14 kts | 342° |
| 2026-05-07 23:59 | 31.14567 | 121.78472 | 30 ft | 11 kts | 342° |
| 2026-05-07 23:59 | 31.14609 | 121.78439 | 30 ft | 5 kts | 301° |
| 2026-05-07 23:59 | 31.14607 | 121.78396 | 29 ft | 6 kts | 251° |
| 2026-05-08 00:00 | 31.14570 | 121.78373 | 30 ft | 7 kts | 185° |
| 2026-05-08 00:00 | 31.14493 | 121.78394 | 30 ft | 15 kts | 164° |
| 2026-05-08 00:00 | 31.14398 | 121.78428 | 30 ft | 13 kts | 162° |
| 2026-05-08 00:00 | 31.14326 | 121.78451 | 28 ft | 8 kts | 178° |
| 2026-05-08 00:01 | 31.14301 | 121.78430 | 30 ft | 4 kts | 236° |
| 2026-05-08 00:01 | 31.14288 | 121.78394 | 30 ft | 5 kts | 250° |
| 2026-05-08 00:01 | 31.14280 | 121.78368 | 30 ft | 2 kts | 252° |
| 2026-05-08 00:01 | 31.14278 | 121.78359 | 30 ft | 1 kts | 252° |
| 2026-05-08 00:02 | 31.14277 | 121.78356 | 30 ft | 0 kts | 252° |